Diehlstadt, Missouri
Current Conditions -  °F | °C
As of 5:35 AM on Friday 31 Oct 2014 (Local Time) from KCIR Reporting Station
Overcast Overcast  
Wind Chill: 52°   Ceiling: 5000
Heat Index: 52°   Visibility: 10mi
Dew Point: 49°   Wind: 6mph
Humidity: 89%   Direction: 320°NW
Pressure: 30.04"   Gusts: NA
Location:  36.9188°N, 89.2741°W
Report Text: KCIR 311035Z AUTO 32005KT 10SM OVC050 11/09 A3004 RMK AO2 T01110094
Loading
Personal Weather Stations






























Interactive Weather Map
Tropical Storm Tracking
New forecast layout! Learn more

10-Day Weather Forecast

Advertisements
Track Severe Weather on mobile